CFG1PG EDDK-EDDF
Flight info
| Callsign | CFG1PG |
|---|---|
| Flight time | 0h 33m |
| Altitude | 15000 |
| Route | COL1R/31R COL T911 ROLIS ROLIS5A |
| Aircraft | A320/M-SDFGHIRWYLB1/LB1 |
Departure
| Time | 2026-05-06 19:15 |
|---|---|
| Airport | Cologne Bonn Airport (EDDK) |
Arrival
| Time | 2026-05-06 19:49 |
|---|---|
| Airport | Frankfurt Main Airport (EDDF) |
| Time | Latitude | Longitude | Altitude | Speed | Heading |
|---|---|---|---|---|---|
| 2026-05-06 18:21 | 50.87806 | 7.12402 | 232 ft | 0 kts | 288° |
| 2026-05-06 18:54 | 50.87804 | 7.12412 | 230 ft | 3 kts | 288° |
| 2026-05-06 18:54 | 50.87797 | 7.12446 | 231 ft | 3 kts | 288° |
| 2026-05-06 18:54 | 50.87789 | 7.12485 | 232 ft | 4 kts | 288° |
| 2026-05-06 18:54 | 50.87781 | 7.12521 | 231 ft | 3 kts | 298° |
| 2026-05-06 18:55 | 50.87767 | 7.12548 | 231 ft | 3 kts | 340° |
| 2026-05-06 18:55 | 50.87756 | 7.12552 | 231 ft | 0 kts | 14° |
| 2026-05-06 18:55 | 50.87749 | 7.12549 | 231 ft | 2 kts | 17° |
| 2026-05-06 18:55 | 50.87732 | 7.12539 | 230 ft | 0 kts | 21° |
| 2026-05-06 19:01 | 50.87733 | 7.12540 | 230 ft | 1 kts | 21° |
| 2026-05-06 19:01 | 50.87753 | 7.12552 | 231 ft | 5 kts | 20° |
| 2026-05-06 19:02 | 50.87766 | 7.12596 | 230 ft | 6 kts | 79° |
| 2026-05-06 19:02 | 50.87768 | 7.12688 | 230 ft | 10 kts | 103° |
| 2026-05-06 19:02 | 50.87717 | 7.12771 | 230 ft | 13 kts | 134° |
| 2026-05-06 19:02 | 50.87644 | 7.12886 | 230 ft | 17 kts | 138° |
| 2026-05-06 19:03 | 50.87563 | 7.12997 | 230 ft | 17 kts | 139° |
| 2026-05-06 19:03 | 50.87501 | 7.13088 | 232 ft | 13 kts | 137° |
| 2026-05-06 19:03 | 50.87422 | 7.13200 | 232 ft | 17 kts | 157° |
| 2026-05-06 19:03 | 50.87336 | 7.13324 | 235 ft | 18 kts | 133° |
| 2026-05-06 19:04 | 50.87271 | 7.13423 | 238 ft | 9 kts | 137° |
| 2026-05-06 19:04 | 50.87218 | 7.13500 | 237 ft | 12 kts | 138° |
| 2026-05-06 19:04 | 50.87148 | 7.13598 | 239 ft | 15 kts | 138° |
| 2026-05-06 19:04 | 50.87065 | 7.13718 | 241 ft | 18 kts | 138° |
| 2026-05-06 19:05 | 50.86978 | 7.13852 | 244 ft | 18 kts | 137° |
| 2026-05-06 19:05 | 50.86875 | 7.13996 | 244 ft | 21 kts | 140° |
| 2026-05-06 19:05 | 50.86777 | 7.14127 | 250 ft | 12 kts | 148° |
| 2026-05-06 19:05 | 50.86698 | 7.14192 | 254 ft | 13 kts | 148° |
| 2026-05-06 19:06 | 50.86686 | 7.14207 | 255 ft | 0 kts | 140° |
| 2026-05-06 19:06 | 50.86685 | 7.14208 | 255 ft | 1 kts | 140° |
| 2026-05-06 19:06 | 50.86679 | 7.14217 | 256 ft | 2 kts | 140° |
| 2026-05-06 19:07 | 50.86664 | 7.14238 | 256 ft | 4 kts | 139° |
| 2026-05-06 19:07 | 50.86647 | 7.14261 | 257 ft | 6 kts | 139° |
| 2026-05-06 19:07 | 50.86587 | 7.14347 | 257 ft | 12 kts | 136° |
| 2026-05-06 19:07 | 50.86515 | 7.14455 | 257 ft | 16 kts | 137° |
| 2026-05-06 19:08 | 50.86440 | 7.14563 | 262 ft | 14 kts | 137° |
| 2026-05-06 19:08 | 50.86364 | 7.14675 | 264 ft | 16 kts | 137° |
| 2026-05-06 19:08 | 50.86274 | 7.14804 | 268 ft | 17 kts | 138° |
| 2026-05-06 19:08 | 50.86177 | 7.14944 | 270 ft | 20 kts | 137° |
| 2026-05-06 19:09 | 50.86069 | 7.15098 | 275 ft | 22 kts | 138° |
| 2026-05-06 19:09 | 50.85955 | 7.15267 | 280 ft | 23 kts | 138° |
| 2026-05-06 19:09 | 50.85838 | 7.15435 | 286 ft | 23 kts | 137° |
| 2026-05-06 19:09 | 50.85725 | 7.15601 | 294 ft | 22 kts | 137° |
| 2026-05-06 19:10 | 50.85612 | 7.15764 | 298 ft | 22 kts | 138° |
| 2026-05-06 19:10 | 50.85493 | 7.15933 | 299 ft | 25 kts | 138° |
| 2026-05-06 19:10 | 50.85364 | 7.16133 | 305 ft | 27 kts | 126° |
| 2026-05-06 19:10 | 50.85345 | 7.16353 | 310 ft | 16 kts | 73° |
| 2026-05-06 19:11 | 50.85356 | 7.16388 | 310 ft | 1 kts | 58° |
| 2026-05-06 19:11 | 50.85362 | 7.16403 | 311 ft | 2 kts | 58° |
| 2026-05-06 19:11 | 50.85363 | 7.16407 | 311 ft | 0 kts | 58° |
| 2026-05-06 19:12 | 50.85390 | 7.16459 | 312 ft | 13 kts | 38° |
| 2026-05-06 19:12 | 50.85422 | 7.16491 | 313 ft | 0 kts | 27° |
| 2026-05-06 19:13 | 50.85431 | 7.16497 | 313 ft | 9 kts | 21° |
| 2026-05-06 19:14 | 50.85544 | 7.16506 | 311 ft | 23 kts | 347° |
| 2026-05-06 19:14 | 50.85677 | 7.16340 | 310 ft | 26 kts | 317° |
| 2026-05-06 19:14 | 50.85845 | 7.16099 | 305 ft | 55 kts | 318° |
| 2026-05-06 19:14 | 50.86300 | 7.15445 | 273 ft | 119 kts | 318° |
| 2026-05-06 19:15 | 50.87037 | 7.14384 | 258 ft | 165 kts | 318° |
| 2026-05-06 19:15 | 50.87933 | 7.13127 | 703 ft | 168 kts | 320° |
| 2026-05-06 19:15 | 50.88854 | 7.12065 | 1454 ft | 162 kts | 336° |
| 2026-05-06 19:15 | 50.89934 | 7.11762 | 2002 ft | 161 kts | 6° |
| 2026-05-06 19:16 | 50.91065 | 7.12258 | 2246 ft | 178 kts | 19° |
| 2026-05-06 19:16 | 50.92280 | 7.12972 | 2513 ft | 194 kts | 18° |
| 2026-05-06 19:16 | 50.93450 | 7.14098 | 2989 ft | 202 kts | 44° |
| 2026-05-06 19:16 | 50.94183 | 7.16007 | 3553 ft | 205 kts | 62° |
| 2026-05-06 19:17 | 50.94800 | 7.18047 | 3986 ft | 214 kts | 61° |
| 2026-05-06 19:17 | 50.95500 | 7.20276 | 4128 ft | 235 kts | 61° |
| 2026-05-06 19:17 | 50.96250 | 7.22639 | 4559 ft | 245 kts | 61° |
| 2026-05-06 19:17 | 50.97047 | 7.25142 | 4769 ft | 262 kts | 61° |
| 2026-05-06 19:18 | 50.97847 | 7.27781 | 5172 ft | 268 kts | 69° |
| 2026-05-06 19:18 | 50.98060 | 7.30722 | 5650 ft | 274 kts | 96° |
| 2026-05-06 19:18 | 50.97401 | 7.33552 | 6102 ft | 279 kts | 123° |
| 2026-05-06 19:18 | 50.96523 | 7.35113 | 6407 ft | 281 kts | 137° |
| 2026-05-06 19:19 | 50.95025 | 7.37142 | 6848 ft | 284 kts | 140° |
| 2026-05-06 19:19 | 50.93481 | 7.39109 | 7277 ft | 286 kts | 140° |
| 2026-05-06 19:19 | 50.91946 | 7.41083 | 7692 ft | 289 kts | 139° |
| 2026-05-06 19:19 | 50.90374 | 7.43151 | 8126 ft | 291 kts | 138° |
| 2026-05-06 19:20 | 50.88839 | 7.45206 | 8548 ft | 293 kts | 137° |
| 2026-05-06 19:20 | 50.87282 | 7.47309 | 8973 ft | 295 kts | 137° |
| 2026-05-06 19:20 | 50.85713 | 7.49435 | 9366 ft | 298 kts | 137° |
| 2026-05-06 19:20 | 50.84131 | 7.51579 | 9762 ft | 300 kts | 137° |
| 2026-05-06 19:21 | 50.82550 | 7.53731 | 10227 ft | 297 kts | 139° |
| 2026-05-06 19:21 | 50.80974 | 7.55877 | 10598 ft | 300 kts | 140° |
| 2026-05-06 19:21 | 50.79390 | 7.58005 | 11016 ft | 299 kts | 142° |
| 2026-05-06 19:21 | 50.77660 | 7.59836 | 11256 ft | 304 kts | 153° |
| 2026-05-06 19:22 | 50.75705 | 7.61230 | 11346 ft | 312 kts | 159° |
| 2026-05-06 19:22 | 50.73669 | 7.62556 | 11429 ft | 320 kts | 159° |
| 2026-05-06 19:22 | 50.71592 | 7.63924 | 11586 ft | 324 kts | 158° |
| 2026-05-06 19:22 | 50.69513 | 7.65305 | 11816 ft | 325 kts | 158° |
| 2026-05-06 19:23 | 50.67427 | 7.66694 | 12047 ft | 325 kts | 158° |
| 2026-05-06 19:23 | 50.65338 | 7.68084 | 12254 ft | 326 kts | 158° |
| 2026-05-06 19:23 | 50.63273 | 7.69456 | 12462 ft | 327 kts | 158° |
| 2026-05-06 19:23 | 50.61173 | 7.70853 | 12683 ft | 328 kts | 159° |
| 2026-05-06 19:24 | 50.59070 | 7.72249 | 12857 ft | 329 kts | 159° |
| 2026-05-06 19:24 | 50.56960 | 7.73647 | 12862 ft | 329 kts | 159° |
| 2026-05-06 19:24 | 50.54854 | 7.75039 | 12863 ft | 329 kts | 159° |
| 2026-05-06 19:24 | 50.52771 | 7.76416 | 12854 ft | 315 kts | 159° |
| 2026-05-06 19:25 | 50.50822 | 7.77708 | 12589 ft | 294 kts | 159° |
| 2026-05-06 19:25 | 50.48966 | 7.78935 | 11890 ft | 287 kts | 160° |
| 2026-05-06 19:25 | 50.47129 | 7.80141 | 11081 ft | 285 kts | 159° |
| 2026-05-06 19:25 | 50.45310 | 7.81334 | 10345 ft | 281 kts | 159° |
| 2026-05-06 19:26 | 50.43532 | 7.82647 | 10012 ft | 292 kts | 151° |
| 2026-05-06 19:26 | 50.41862 | 7.84523 | 9889 ft | 297 kts | 143° |
| 2026-05-06 19:26 | 50.40249 | 7.86556 | 9854 ft | 295 kts | 143° |
| 2026-05-06 19:26 | 50.38654 | 7.88561 | 9851 ft | 291 kts | 144° |
| 2026-05-06 19:27 | 50.37082 | 7.90525 | 9862 ft | 291 kts | 144° |
| 2026-05-06 19:27 | 50.35486 | 7.92496 | 9859 ft | 292 kts | 144° |
| 2026-05-06 19:27 | 50.33893 | 7.94463 | 9859 ft | 292 kts | 144° |
| 2026-05-06 19:27 | 50.32297 | 7.96431 | 9853 ft | 292 kts | 144° |
| 2026-05-06 19:28 | 50.30703 | 7.98398 | 9854 ft | 292 kts | 144° |
| 2026-05-06 19:28 | 50.29110 | 8.00364 | 9852 ft | 292 kts | 144° |
| 2026-05-06 19:28 | 50.27517 | 8.02330 | 9853 ft | 292 kts | 144° |
| 2026-05-06 19:28 | 50.26019 | 8.04481 | 9851 ft | 294 kts | 134° |
| 2026-05-06 19:29 | 50.24747 | 8.07001 | 9856 ft | 296 kts | 129° |
| 2026-05-06 19:29 | 50.23506 | 8.09556 | 9853 ft | 295 kts | 130° |
| 2026-05-06 19:29 | 50.22255 | 8.12105 | 9850 ft | 296 kts | 130° |
| 2026-05-06 19:29 | 50.21002 | 8.14647 | 9846 ft | 296 kts | 130° |
| 2026-05-06 19:30 | 50.19743 | 8.17195 | 9848 ft | 296 kts | 130° |
| 2026-05-06 19:30 | 50.18487 | 8.19734 | 9850 ft | 296 kts | 130° |
| 2026-05-06 19:30 | 50.17226 | 8.22281 | 9849 ft | 296 kts | 130° |
| 2026-05-06 19:30 | 50.15971 | 8.24817 | 9847 ft | 295 kts | 130° |
| 2026-05-06 19:31 | 50.14714 | 8.27353 | 9842 ft | 295 kts | 130° |
| 2026-05-06 19:31 | 50.13459 | 8.29883 | 9848 ft | 295 kts | 130° |
| 2026-05-06 19:31 | 50.10950 | 8.34983 | 9847 ft | 301 kts | 124° |
| 2026-05-06 19:32 | 50.10196 | 8.38030 | 9838 ft | 304 kts | 99° |
| 2026-05-06 19:32 | 50.10298 | 8.41292 | 9657 ft | 302 kts | 76° |
| 2026-05-06 19:32 | 50.10981 | 8.44378 | 9275 ft | 301 kts | 67° |
| 2026-05-06 19:32 | 50.11819 | 8.47368 | 8889 ft | 300 kts | 65° |
| 2026-05-06 19:33 | 50.12657 | 8.50333 | 8507 ft | 298 kts | 67° |
| 2026-05-06 19:33 | 50.13437 | 8.53316 | 8124 ft | 296 kts | 69° |
| 2026-05-06 19:33 | 50.14168 | 8.56310 | 7740 ft | 295 kts | 70° |
| 2026-05-06 19:33 | 50.14878 | 8.59294 | 7376 ft | 293 kts | 70° |
| 2026-05-06 19:34 | 50.15580 | 8.62260 | 7031 ft | 290 kts | 70° |
| 2026-05-06 19:34 | 50.16275 | 8.65192 | 6880 ft | 289 kts | 70° |
| 2026-05-06 19:34 | 50.16987 | 8.68145 | 6853 ft | 291 kts | 70° |
| 2026-05-06 19:34 | 50.17690 | 8.71064 | 6852 ft | 290 kts | 70° |
| 2026-05-06 19:35 | 50.18397 | 8.74016 | 6850 ft | 291 kts | 70° |
| 2026-05-06 19:35 | 50.19100 | 8.76971 | 6846 ft | 290 kts | 70° |
| 2026-05-06 19:35 | 50.19799 | 8.79922 | 6848 ft | 290 kts | 70° |
| 2026-05-06 19:35 | 50.20495 | 8.82883 | 6842 ft | 290 kts | 70° |
| 2026-05-06 19:36 | 50.21191 | 8.85846 | 6840 ft | 291 kts | 70° |
| 2026-05-06 19:36 | 50.21883 | 8.88795 | 6838 ft | 290 kts | 70° |
| 2026-05-06 19:36 | 50.22578 | 8.91762 | 6838 ft | 290 kts | 70° |
| 2026-05-06 19:36 | 50.23271 | 8.94724 | 6834 ft | 290 kts | 70° |
| 2026-05-06 19:37 | 50.23963 | 8.97685 | 6830 ft | 290 kts | 70° |
| 2026-05-06 19:37 | 50.24654 | 9.00647 | 6826 ft | 290 kts | 70° |
| 2026-05-06 19:37 | 50.25341 | 9.03594 | 6684 ft | 288 kts | 70° |
| 2026-05-06 19:37 | 50.26020 | 9.06511 | 6367 ft | 288 kts | 70° |
| 2026-05-06 19:38 | 50.26703 | 9.09450 | 6023 ft | 286 kts | 70° |
| 2026-05-06 19:38 | 50.27380 | 9.12367 | 5632 ft | 285 kts | 70° |
| 2026-05-06 19:38 | 50.27998 | 9.15291 | 5314 ft | 281 kts | 80° |
| 2026-05-06 19:38 | 50.27921 | 9.18276 | 5050 ft | 275 kts | 109° |
| 2026-05-06 19:39 | 50.26967 | 9.20855 | 4994 ft | 276 kts | 137° |
| 2026-05-06 19:39 | 50.25382 | 9.22440 | 4985 ft | 270 kts | 165° |
| 2026-05-06 19:39 | 50.23546 | 9.22688 | 4986 ft | 265 kts | 193° |
| 2026-05-06 19:39 | 50.21924 | 9.21600 | 4985 ft | 246 kts | 220° |
| 2026-05-06 19:40 | 50.20665 | 9.19890 | 5002 ft | 251 kts | 224° |
| 2026-05-06 19:40 | 50.19335 | 9.18000 | 4990 ft | 260 kts | 224° |
| 2026-05-06 19:40 | 50.18007 | 9.16099 | 4995 ft | 259 kts | 224° |
| 2026-05-06 19:40 | 50.16685 | 9.14194 | 4989 ft | 258 kts | 227° |
| 2026-05-06 19:41 | 50.15772 | 9.11816 | 4992 ft | 258 kts | 255° |
| 2026-05-06 19:41 | 50.15477 | 9.09044 | 5001 ft | 261 kts | 262° |
| 2026-05-06 19:41 | 50.15247 | 9.06067 | 5000 ft | 288 kts | 269° |
| 2026-05-06 19:41 | 50.15569 | 9.03012 | 5002 ft | 280 kts | 283° |
| 2026-05-06 19:42 | 50.16055 | 9.00163 | 5003 ft | 264 kts | 284° |
| 2026-05-06 19:42 | 50.16278 | 8.97447 | 4999 ft | 244 kts | 262° |
| 2026-05-06 19:42 | 50.15685 | 8.95100 | 4999 ft | 227 kts | 231° |
| 2026-05-06 19:42 | 50.14619 | 8.93394 | 5007 ft | 212 kts | 230° |
| 2026-05-06 19:43 | 50.13816 | 8.91588 | 5006 ft | 195 kts | 243° |
| 2026-05-06 19:43 | 50.13276 | 8.89753 | 5006 ft | 178 kts | 248° |
| 2026-05-06 19:43 | 50.12849 | 8.87999 | 5034 ft | 175 kts | 250° |
| 2026-05-06 19:43 | 50.12425 | 8.86214 | 5027 ft | 173 kts | 249° |
| 2026-05-06 19:44 | 50.12007 | 8.84463 | 4846 ft | 172 kts | 250° |
| 2026-05-06 19:44 | 50.11589 | 8.82712 | 4617 ft | 174 kts | 250° |
| 2026-05-06 19:44 | 50.11168 | 8.80948 | 4365 ft | 172 kts | 250° |
| 2026-05-06 19:44 | 50.10756 | 8.79219 | 4119 ft | 171 kts | 250° |
| 2026-05-06 19:45 | 50.10337 | 8.77464 | 3885 ft | 172 kts | 250° |
| 2026-05-06 19:45 | 50.09923 | 8.75731 | 3635 ft | 170 kts | 251° |
| 2026-05-06 19:45 | 50.09510 | 8.73997 | 3387 ft | 171 kts | 251° |
| 2026-05-06 19:45 | 50.09099 | 8.72277 | 3146 ft | 170 kts | 251° |
| 2026-05-06 19:46 | 50.08689 | 8.70562 | 2900 ft | 170 kts | 252° |
| 2026-05-06 19:46 | 50.08281 | 8.68851 | 2665 ft | 166 kts | 252° |
| 2026-05-06 19:46 | 50.07876 | 8.67153 | 2421 ft | 168 kts | 252° |
| 2026-05-06 19:46 | 50.07467 | 8.65443 | 2171 ft | 168 kts | 252° |
| 2026-05-06 19:47 | 50.07062 | 8.63748 | 1925 ft | 166 kts | 252° |
| 2026-05-06 19:47 | 50.06679 | 8.62153 | 1688 ft | 147 kts | 252° |
| 2026-05-06 19:47 | 50.06334 | 8.60700 | 1486 ft | 144 kts | 252° |
| 2026-05-06 19:47 | 50.05979 | 8.59214 | 1263 ft | 147 kts | 252° |
| 2026-05-06 19:48 | 50.05626 | 8.57753 | 1038 ft | 141 kts | 251° |
| 2026-05-06 19:48 | 50.05289 | 8.56327 | 752 ft | 140 kts | 251° |
| 2026-05-06 19:48 | 50.04962 | 8.54948 | 585 ft | 133 kts | 251° |
| 2026-05-06 19:48 | 50.04644 | 8.53627 | 415 ft | 128 kts | 252° |
| 2026-05-06 19:49 | 50.04334 | 8.52350 | 349 ft | 122 kts | 251° |
| 2026-05-06 19:49 | 50.04141 | 8.51543 | 351 ft | 36 kts | 249° |
| 2026-05-06 19:49 | 50.04055 | 8.51192 | 346 ft | 35 kts | 246° |
| 2026-05-06 19:49 | 50.03980 | 8.50880 | 352 ft | 22 kts | 251° |
| 2026-05-06 19:50 | 50.03927 | 8.50646 | 347 ft | 23 kts | 250° |
| 2026-05-06 19:50 | 50.03853 | 8.50420 | 356 ft | 24 kts | 234° |
| 2026-05-06 19:50 | 50.03729 | 8.50241 | 354 ft | 24 kts | 220° |
| 2026-05-06 19:50 | 50.03643 | 8.50199 | 353 ft | 0 kts | 141° |
| 2026-05-06 19:51 | 50.03637 | 8.50206 | 351 ft | 0 kts | 141° |
| 2026-05-06 19:51 | 50.03637 | 8.50207 | 351 ft | 1 kts | 141° |
| 2026-05-06 19:51 | 50.03625 | 8.50257 | 346 ft | 10 kts | 90° |
| 2026-05-06 19:52 | 50.03653 | 8.50376 | 352 ft | 14 kts | 66° |
| 2026-05-06 19:52 | 50.03692 | 8.50530 | 350 ft | 17 kts | 69° |
| 2026-05-06 19:52 | 50.03734 | 8.50707 | 347 ft | 19 kts | 70° |
| 2026-05-06 19:52 | 50.03780 | 8.50910 | 354 ft | 21 kts | 70° |
| 2026-05-06 19:53 | 50.03833 | 8.51132 | 348 ft | 23 kts | 69° |
| 2026-05-06 19:53 | 50.03891 | 8.51372 | 350 ft | 24 kts | 69° |
| 2026-05-06 19:53 | 50.03951 | 8.51634 | 346 ft | 27 kts | 70° |
| 2026-05-06 19:53 | 50.04020 | 8.51921 | 350 ft | 29 kts | 70° |
| 2026-05-06 19:54 | 50.04093 | 8.52223 | 346 ft | 30 kts | 70° |
| 2026-05-06 19:54 | 50.04155 | 8.52477 | 350 ft | 23 kts | 68° |
| 2026-05-06 19:54 | 50.04215 | 8.52713 | 348 ft | 24 kts | 70° |
| 2026-05-06 19:54 | 50.04273 | 8.52970 | 347 ft | 26 kts | 70° |
| 2026-05-06 19:55 | 50.04337 | 8.53239 | 345 ft | 27 kts | 72° |
| 2026-05-06 19:55 | 50.04400 | 8.53517 | 351 ft | 27 kts | 76° |
| 2026-05-06 19:55 | 50.04416 | 8.53807 | 345 ft | 19 kts | 84° |
| 2026-05-06 19:55 | 50.04430 | 8.54022 | 352 ft | 21 kts | 84° |
| 2026-05-06 19:56 | 50.04446 | 8.54259 | 347 ft | 23 kts | 84° |
| 2026-05-06 19:56 | 50.04450 | 8.54502 | 349 ft | 21 kts | 96° |
| 2026-05-06 19:56 | 50.04384 | 8.54707 | 353 ft | 22 kts | 134° |
| 2026-05-06 19:56 | 50.04248 | 8.54807 | 345 ft | 11 kts | 159° |
| 2026-05-06 19:57 | 50.04237 | 8.54813 | 352 ft | 3 kts | 159° |
| 2026-05-06 19:57 | 50.04208 | 8.54831 | 352 ft | 6 kts | 159° |
| 2026-05-06 19:57 | 50.04157 | 8.54861 | 349 ft | 10 kts | 159° |
| 2026-05-06 19:57 | 50.04085 | 8.54904 | 349 ft | 13 kts | 159° |
| 2026-05-06 19:58 | 50.04022 | 8.54992 | 352 ft | 13 kts | 101° |
| 2026-05-06 19:58 | 50.04048 | 8.55135 | 348 ft | 15 kts | 68° |
| 2026-05-06 19:58 | 50.04089 | 8.55300 | 351 ft | 18 kts | 70° |
| 2026-05-06 19:58 | 50.04132 | 8.55489 | 348 ft | 17 kts | 70° |
| 2026-05-06 19:59 | 50.04102 | 8.55595 | 348 ft | 11 kts | 161° |
| 2026-05-06 19:59 | 50.04075 | 8.55612 | 351 ft | 0 kts | 158° |